Time,TemperatureF,DewpointF,PressureIn,WindDirection,WindDirectionDegrees,WindSpeedMPH,WindSpeedGustMPH,Humidity,HourlyPrecipIn,Conditions,Clouds,dailyrainin,SolarRadiationWatts/m^2,SoftwareType,DateUTC
2013-12-20 00:02:00,17.1,13.9,30.11,NE,39,7.0,7.0,87,0.00,,,0.00,0,Wunderground v.1.15,2013-12-20 06:02:00,
2013-12-20 00:07:00,17.1,13.9,30.11,NE,56,8.0,12.0,87,0.00,,,0.00,0,Wunderground v.1.15,2013-12-20 06:07:00,
2013-12-20 00:13:00,17.1,13.9,30.11,NNE,29,9.0,9.0,87,0.00,,,0.00,0,Wunderground v.1.15,2013-12-20 06:13:00,
2013-12-20 00:18:00,17.1,13.9,30.11,NE,39,4.0,9.0,87,0.00,,,0.00,0,Wunderground v.1.15,2013-12-20 06:18:00,
2013-12-20 00:23:00,17.1,13.9,30.11,NE,38,8.0,10.0,87,0.00,,,0.00,0,Wunderground v.1.15,2013-12-20 06:23:00,
2013-12-20 00:28:00,17.1,13.9,30.11,NE,42,9.0,11.0,87,0.00,,,0.00,0,Wunderground v.1.15,2013-12-20 06:28:00,
2013-12-20 00:34:00,17.1,13.9,30.10,NE,42,6.0,13.0,87,0.00,,,0.00,0,Wunderground v.1.15,2013-12-20 06:34:00,
2013-12-20 00:39:00,17.1,13.9,30.10,NE,42,6.0,13.0,87,0.00,,,0.00,0,Wunderground v.1.15,2013-12-20 06:39:00,
2013-12-20 00:44:00,17.1,13.9,30.09,NE,45,5.0,8.0,87,0.00,,,0.00,0,Wunderground v.1.15,2013-12-20 06:44:00,
2013-12-20 00:49:00,17.1,13.9,30.09,ENE,62,12.0,12.0,87,0.00,,,0.00,0,Wunderground v.1.15,2013-12-20 06:49:00,
2013-12-20 00:54:00,17.1,13.9,30.09,NE,53,11.0,12.0,87,0.00,,,0.00,0,Wunderground v.1.15,2013-12-20 06:54:00,
2013-12-20 00:59:00,17.1,13.9,30.09,NE,42,7.0,12.0,87,0.00,,,0.00,0,Wunderground v.1.15,2013-12-20 06:59:00,
2013-12-20 01:05:00,17.2,14.0,30.09,NE,38,5.0,10.0,87,0.00,,,0.00,0,Wunderground v.1.15,2013-12-20 07:05:00,
2013-12-20 01:10:00,17.1,13.9,30.09,NE,43,7.0,7.0,87,0.00,,,0.00,0,Wunderground v.1.15,2013-12-20 07:10:00,
2013-12-20 01:15:00,17.2,14.0,30.09,NE,38,6.0,7.0,87,0.00,,,0.00,0,Wunderground v.1.15,2013-12-20 07:15:00,
2013-12-20 01:20:00,17.2,14.0,30.09,NE,51,8.0,8.0,87,0.00,,,0.00,0,Wunderground v.1.15,2013-12-20 07:20:00,
2013-12-20 01:25:00,17.2,14.0,30.10,NE,42,7.0,8.0,87,0.00,,,0.00,0,Wunderground v.1.15,2013-12-20 07:25:00,
2013-12-20 01:31:00,17.2,13.7,30.09,NE,45,7.0,7.0,86,0.00,,,0.00,0,Wunderground v.1.15,2013-12-20 07:31:00,
2013-12-20 01:36:00,17.2,13.7,30.09,NE,43,7.0,10.0,86,0.00,,,0.00,0,Wunderground v.1.15,2013-12-20 07:36:00,
2013-12-20 01:41:00,17.3,13.8,30.09,ENE,63,7.0,7.0,86,0.00,,,0.00,0,Wunderground v.1.15,2013-12-20 07:41:00,
2013-12-20 01:47:00,17.2,13.7,30.08,NE,48,8.0,8.0,86,0.00,,,0.00,0,Wunderground v.1.15,2013-12-20 07:47:00,
2013-12-20 01:52:00,17.3,13.8,30.08,NNE,30,7.0,7.0,86,0.00,,,0.00,0,Wunderground v.1.15,2013-12-20 07:52:00,
2013-12-20 01:57:00,17.3,13.8,30.09,NE,45,7.0,10.0,86,0.00,,,0.00,0,Wunderground v.1.15,2013-12-20 07:57:00,
2013-12-20 02:03:00,17.3,13.8,30.09,NE,46,8.0,8.0,86,0.00,,,0.00,0,Wunderground v.1.15,2013-12-20 08:03:00,
2013-12-20 02:08:00,17.4,13.9,30.09,NE,51,5.0,13.0,86,0.00,,,0.00,0,Wunderground v.1.15,2013-12-20 08:08:00,
2013-12-20 02:13:00,17.4,13.9,30.09,NNE,17,4.0,9.0,86,0.00,,,0.00,0,Wunderground v.1.15,2013-12-20 08:13:00,
2013-12-20 02:18:00,17.4,13.9,30.09,ENE,57,7.0,12.0,86,0.00,,,0.00,0,Wunderground v.1.15,2013-12-20 08:18:00,
2013-12-20 02:23:00,17.4,13.9,30.09,NE,44,9.0,10.0,86,0.00,,,0.00,0,Wunderground v.1.15,2013-12-20 08:23:00,
2013-12-20 02:28:00,17.4,13.9,30.09,NE,39,11.0,11.0,86,0.00,,,0.00,0,Wunderground v.1.15,2013-12-20 08:28:00,
2013-12-20 02:33:00,17.4,13.9,30.09,NE,45,7.0,8.0,86,0.00,,,0.00,0,Wunderground v.1.15,2013-12-20 08:33:00,
2013-12-20 02:38:00,17.4,13.9,30.09,NNE,33,5.0,11.0,86,0.00,,,0.00,0,Wunderground v.1.15,2013-12-20 08:38:00,
2013-12-20 02:43:00,17.4,13.9,30.09,NE,46,7.0,8.0,86,0.00,,,0.00,0,Wunderground v.1.15,2013-12-20 08:43:00,
2013-12-20 02:48:00,17.4,13.9,30.09,NE,45,6.0,11.0,86,0.00,,,0.00,0,Wunderground v.1.15,2013-12-20 08:48:00,
2013-12-20 02:53:00,17.3,13.8,30.09,NNE,31,4.0,8.0,86,0.00,,,0.00,0,Wunderground v.1.15,2013-12-20 08:53:00,
2013-12-20 02:58:00,17.3,13.8,30.09,NE,44,5.0,11.0,86,0.00,,,0.00,0,Wunderground v.1.15,2013-12-20 08:58:00,
2013-12-20 03:03:00,17.3,13.8,30.09,NE,38,7.0,7.0,86,0.00,,,0.00,0,Wunderground v.1.15,2013-12-20 09:03:00,
2013-12-20 03:08:00,17.3,13.8,30.09,NE,46,8.0,11.0,86,0.00,,,0.00,0,Wunderground v.1.15,2013-12-20 09:08:00,
2013-12-20 03:13:00,17.3,13.8,30.08,NE,40,4.0,10.0,86,0.00,,,0.00,0,Wunderground v.1.15,2013-12-20 09:13:00,
2013-12-20 03:18:00,17.3,13.8,30.09,NE,47,5.0,10.0,86,0.00,,,0.00,0,Wunderground v.1.15,2013-12-20 09:18:00,
2013-12-20 03:23:00,17.3,13.8,30.09,NE,44,0.0,7.0,86,0.00,,,0.00,0,Wunderground v.1.15,2013-12-20 09:23:00,
2013-12-20 03:28:00,17.3,13.8,30.09,NE,34,4.0,8.0,86,0.00,,,0.00,0,Wunderground v.1.15,2013-12-20 09:28:00,
2013-12-20 03:33:00,17.2,13.7,30.09,NNE,28,6.0,8.0,86,0.00,,,0.00,0,Wunderground v.1.15,2013-12-20 09:33:00,
2013-12-20 03:38:00,17.1,13.6,30.09,NE,40,6.0,8.0,86,0.00,,,0.00,0,Wunderground v.1.15,2013-12-20 09:38:00,
2013-12-20 03:43:00,17.1,13.6,30.09,NE,44,0.0,7.0,86,0.00,,,0.00,0,Wunderground v.1.15,2013-12-20 09:43:00,
2013-12-20 03:48:00,17.0,13.5,30.08,NE,48,4.0,7.0,86,0.00,,,0.00,0,Wunderground v.1.15,2013-12-20 09:48:00,
2013-12-20 03:53:00,16.9,13.4,30.08,NE,41,5.0,6.0,86,0.00,,,0.00,0,Wunderground v.1.15,2013-12-20 09:53:00,
2013-12-20 03:58:00,16.8,13.3,30.08,NE,41,3.0,6.0,86,0.00,,,0.00,0,Wunderground v.1.15,2013-12-20 09:58:00,
2013-12-20 04:03:00,16.7,13.2,30.08,NE,49,4.0,8.0,86,0.00,,,0.00,0,Wunderground v.1.15,2013-12-20 10:03:00,
2013-12-20 04:08:00,16.6,13.1,30.08,NE,49,0.0,8.0,86,0.00,,,0.00,0,Wunderground v.1.15,2013-12-20 10:08:00,
2013-12-20 04:13:00,16.5,13.0,30.09,NE,46,0.0,5.0,86,0.00,,,0.00,0,Wunderground v.1.15,2013-12-20 10:13:00,
2013-12-20 04:18:00,16.5,13.0,30.08,NE,46,0.0,7.0,86,0.00,,,0.00,0,Wunderground v.1.15,2013-12-20 10:18:00,
2013-12-20 04:23:00,16.6,13.1,30.08,NE,36,5.0,5.0,86,0.00,,,0.00,0,Wunderground v.1.15,2013-12-20 10:23:00,
2013-12-20 04:28:00,16.6,13.1,30.08,NNE,31,6.0,6.0,86,0.00,,,0.00,0,Wunderground v.1.15,2013-12-20 10:28:00,
2013-12-20 04:33:00,16.6,13.1,30.08,NNE,32,0.0,6.0,86,0.00,,,0.00,0,Wunderground v.1.15,2013-12-20 10:33:00,
2013-12-20 04:38:00,16.7,13.0,30.08,NNE,33,4.0,6.0,85,0.00,,,0.00,0,Wunderground v.1.15,2013-12-20 10:38:00,
2013-12-20 04:43:00,16.7,13.0,30.09,NNE,33,1.0,6.0,85,0.00,,,0.00,0,Wunderground v.1.15,2013-12-20 10:43:00,
2013-12-20 04:48:00,16.7,13.0,30.09,NNE,33,3.0,7.0,85,0.00,,,0.00,0,Wunderground v.1.15,2013-12-20 10:48:00,
2013-12-20 04:53:00,16.7,13.0,30.09,NE,34,3.0,5.0,85,0.00,,,0.00,0,Wunderground v.1.15,2013-12-20 10:53:00,
2013-12-20 04:58:00,16.7,13.0,30.09,NE,35,0.0,7.0,85,0.00,,,0.00,0,Wunderground v.1.15,2013-12-20 10:58:00,
2013-12-20 05:04:00,16.7,13.0,30.09,NE,35,4.0,4.0,85,0.00,,,0.00,0,Wunderground v.1.15,2013-12-20 11:04:00,
2013-12-20 05:09:00,16.6,12.9,30.09,NNE,32,1.0,6.0,85,0.00,,,0.00,0,Wunderground v.1.15,2013-12-20 11:09:00,
2013-12-20 05:14:00,16.6,12.9,30.09,NNE,26,0.0,8.0,85,0.00,,,0.00,0,Wunderground v.1.15,2013-12-20 11:14:00,
2013-12-20 05:19:00,16.6,12.9,30.09,NNE,24,0.0,8.0,85,0.00,,,0.00,0,Wunderground v.1.15,2013-12-20 11:19:00,
2013-12-20 05:24:00,16.2,12.5,30.09,NNE,16,4.0,5.0,85,0.00,,,0.00,0,Wunderground v.1.15,2013-12-20 11:24:00,
2013-12-20 05:29:00,15.7,12.0,30.09,NNE,12,0.0,7.0,85,0.00,,,0.00,0,Wunderground v.1.15,2013-12-20 11:29:00,
2013-12-20 05:34:00,15.4,11.7,30.09,North,9,5.0,5.0,85,0.00,,,0.00,0,Wunderground v.1.15,2013-12-20 11:34:00,
2013-12-20 05:39:00,14.9,11.2,30.09,NNE,12,0.0,7.0,85,0.00,,,0.00,0,Wunderground v.1.15,2013-12-20 11:39:00,
2013-12-20 05:44:00,14.6,10.9,30.10,NNE,14,1.0,7.0,85,0.00,,,0.00,0,Wunderground v.1.15,2013-12-20 11:44:00,
2013-12-20 05:49:00,14.5,11.1,30.10,NNE,15,6.0,7.0,86,0.00,,,0.00,0,Wunderground v.1.15,2013-12-20 11:49:00,
2013-12-20 05:54:00,14.3,10.9,30.10,NNE,15,5.0,7.0,86,0.00,,,0.00,0,Wunderground v.1.15,2013-12-20 11:54:00,
2013-12-20 05:59:00,14.1,10.7,30.10,NNE,16,6.0,8.0,86,0.00,,,0.00,0,Wunderground v.1.15,2013-12-20 11:59:00,
2013-12-20 06:04:00,14.1,10.7,30.10,NNE,17,4.0,7.0,86,0.00,,,0.00,0,Wunderground v.1.15,2013-12-20 12:04:00,
2013-12-20 06:09:00,14.1,10.7,30.11,NNE,18,3.0,7.0,86,0.00,,,0.00,0,Wunderground v.1.15,2013-12-20 12:09:00,
2013-12-20 06:14:00,14.0,10.6,30.11,NNE,24,4.0,8.0,86,0.00,,,0.00,0,Wunderground v.1.15,2013-12-20 12:14:00,
2013-12-20 06:19:00,13.9,10.5,30.10,NNE,17,4.0,8.0,86,0.00,,,0.00,0,Wunderground v.1.15,2013-12-20 12:19:00,
2013-12-20 06:24:00,13.9,10.5,30.10,NNE,17,0.0,5.0,86,0.00,,,0.00,0,Wunderground v.1.15,2013-12-20 12:24:00,
2013-12-20 06:29:00,13.9,10.5,30.10,NNE,17,6.0,6.0,86,0.00,,,0.00,0,Wunderground v.1.15,2013-12-20 12:29:00,
2013-12-20 06:34:00,13.9,10.5,30.09,NNE,17,6.0,6.0,86,0.00,,,0.00,0,Wunderground v.1.15,2013-12-20 12:34:00,
2013-12-20 06:39:00,13.9,10.5,30.09,NNE,20,0.0,6.0,86,0.00,,,0.00,0,Wunderground v.1.15,2013-12-20 12:39:00,
2013-12-20 06:44:00,14.0,10.6,30.09,NNE,21,4.0,5.0,86,0.00,,,0.00,0,Wunderground v.1.15,2013-12-20 12:44:00,
2013-12-20 06:49:00,14.0,10.6,30.09,NNE,20,2.0,5.0,86,0.00,,,0.00,0,Wunderground v.1.15,2013-12-20 12:49:00,
2013-12-20 06:54:00,14.0,10.6,30.09,NNE,20,5.0,5.0,86,0.00,,,0.00,0,Wunderground v.1.15,2013-12-20 12:54:00,
2013-12-20 06:59:00,14.0,10.6,30.09,NNE,21,0.0,6.0,86,0.00,,,0.00,0,Wunderground v.1.15,2013-12-20 12:59:00,
2013-12-20 07:04:00,14.1,10.7,30.09,NNE,21,4.0,6.0,86,0.00,,,0.00,0,Wunderground v.1.15,2013-12-20 13:04:00,
2013-12-20 07:09:00,14.1,10.7,30.08,NNE,21,1.0,6.0,86,0.00,,,0.00,0,Wunderground v.1.15,2013-12-20 13:09:00,
2013-12-20 07:14:00,14.1,10.7,30.08,NNE,21,0.0,6.0,86,0.00,,,0.00,0,Wunderground v.1.15,2013-12-20 13:14:00,
2013-12-20 07:19:00,14.3,10.9,30.08,NNE,22,4.0,6.0,86,0.00,,,0.00,0,Wunderground v.1.15,2013-12-20 13:19:00,
2013-12-20 07:24:00,14.3,10.9,30.08,NNE,22,4.0,4.0,86,0.00,,,0.00,0,Wunderground v.1.15,2013-12-20 13:24:00,
2013-12-20 07:29:00,14.4,11.0,30.09,NNE,22,0.0,4.0,86,0.00,,,0.00,0,Wunderground v.1.15,2013-12-20 13:29:00,
2013-12-20 07:34:00,14.5,11.1,30.09,NNE,22,0.0,5.0,86,0.00,,,0.00,0,Wunderground v.1.15,2013-12-20 13:34:00,
2013-12-20 07:39:00,14.6,11.2,30.09,NNE,22,0.0,5.0,86,0.00,,,0.00,0,Wunderground v.1.15,2013-12-20 13:39:00,
2013-12-20 07:44:00,14.6,11.2,30.08,NNE,22,0.0,5.0,86,0.00,,,0.00,0,Wunderground v.1.15,2013-12-20 13:44:00,
2013-12-20 07:49:00,14.7,11.3,30.08,NNE,22,0.0,5.0,86,0.00,,,0.00,0,Wunderground v.1.15,2013-12-20 13:49:00,
2013-12-20 07:54:00,14.8,11.4,30.08,NNE,22,0.0,1.0,86,0.00,,,0.00,5,Wunderground v.1.15,2013-12-20 13:54:00,
2013-12-20 07:59:00,14.8,11.4,30.09,NNE,22,0.0,1.0,86,0.00,,,0.00,7,Wunderground v.1.15,2013-12-20 13:59:00,
2013-12-20 08:04:00,14.9,11.5,30.09,NNE,22,0.0,0.0,86,0.00,,,0.00,11,Wunderground v.1.15,2013-12-20 14:04:00,
2013-12-20 08:09:00,15.0,11.6,30.09,NNE,22,0.0,0.0,86,0.00,,,0.00,11,Wunderground v.1.15,2013-12-20 14:09:00,
2013-12-20 08:14:00,15.0,11.6,30.08,NNE,22,0.0,4.0,86,0.00,,,0.00,14,Wunderground v.1.15,2013-12-20 14:14:00,
2013-12-20 08:19:00,15.0,11.6,30.08,NNE,22,0.0,4.0,86,0.00,,,0.00,16,Wunderground v.1.15,2013-12-20 14:19:00,
2013-12-20 08:24:00,15.1,11.7,30.09,NNE,22,0.0,5.0,86,0.00,,,0.00,19,Wunderground v.1.15,2013-12-20 14:24:00,
2013-12-20 08:29:00,15.1,11.7,30.08,NNE,22,1.0,5.0,86,0.00,,,0.00,21,Wunderground v.1.15,2013-12-20 14:29:00,
2013-12-20 08:34:00,15.1,11.7,30.08,NNE,22,1.0,6.0,86,0.00,,,0.00,25,Wunderground v.1.15,2013-12-20 14:34:00,
2013-12-20 08:39:00,15.1,11.7,30.09,NNE,23,1.0,6.0,86,0.00,,,0.00,25,Wunderground v.1.15,2013-12-20 14:39:00,
2013-12-20 08:44:00,15.2,11.8,30.09,NNE,22,0.0,5.0,86,0.00,,,0.00,25,Wunderground v.1.15,2013-12-20 14:44:00,
2013-12-20 08:49:00,15.2,11.8,30.09,NNE,22,0.0,6.0,86,0.00,,,0.00,21,Wunderground v.1.15,2013-12-20 14:49:00,
2013-12-20 08:54:00,15.2,11.5,30.10,NNE,22,0.0,6.0,85,0.00,,,0.00,21,Wunderground v.1.15,2013-12-20 14:54:00,
2013-12-20 08:59:00,15.3,11.9,30.09,NNE,19,4.0,6.0,86,0.00,,,0.00,28,Wunderground v.1.15,2013-12-20 14:59:00,
2013-12-20 09:04:00,15.3,11.6,30.09,NNE,26,0.0,7.0,85,0.00,,,0.00,42,Wunderground v.1.15,2013-12-20 15:04:00,
2013-12-20 09:09:00,15.1,11.4,30.09,NNE,29,2.0,7.0,85,0.00,,,0.00,60,Wunderground v.1.15,2013-12-20 15:09:00,
2013-12-20 09:14:00,15.0,11.3,30.09,NNE,24,0.0,6.0,85,0.00,,,0.00,72,Wunderground v.1.15,2013-12-20 15:14:00,
2013-12-20 09:19:00,15.1,11.4,30.09,NE,36,2.0,8.0,85,0.00,,,0.00,104,Wunderground v.1.15,2013-12-20 15:19:00,
2013-12-20 09:25:00,15.1,11.4,30.09,NNE,13,9.0,9.0,85,0.00,,,0.00,91,Wunderground v.1.15,2013-12-20 15:25:00,
2013-12-20 09:30:00,14.8,11.1,30.09,NNE,18,6.0,9.0,85,0.00,,,0.00,88,Wunderground v.1.15,2013-12-20 15:30:00,
2013-12-20 09:34:00,14.9,11.2,30.09,North,11,7.0,7.0,85,0.00,,,0.00,84,Wunderground v.1.15,2013-12-20 15:34:00,
2013-12-20 09:39:00,14.6,10.9,30.09,NNE,17,5.0,8.0,85,0.00,,,0.00,93,Wunderground v.1.15,2013-12-20 15:39:00,
2013-12-20 09:44:00,14.4,10.7,30.08,NNE,30,6.0,7.0,85,0.00,,,0.00,142,Wunderground v.1.15,2013-12-20 15:44:00,
2013-12-20 09:49:00,14.5,10.8,30.08,NNE,17,0.0,8.0,85,0.00,,,0.00,172,Wunderground v.1.15,2013-12-20 15:49:00,
2013-12-20 09:55:00,14.5,10.8,30.08,NE,38,0.0,7.0,85,0.00,,,0.00,174,Wunderground v.1.15,2013-12-20 15:55:00,
2013-12-20 10:00:00,14.7,11.0,30.08,NE,36,5.0,7.0,85,0.00,,,0.00,156,Wunderground v.1.15,2013-12-20 16:00:00,
2013-12-20 10:05:00,14.7,11.0,30.09,NNE,21,0.0,5.0,85,0.00,,,0.00,165,Wunderground v.1.15,2013-12-20 16:05:00,
2013-12-20 10:10:00,14.8,10.8,30.09,NNE,13,0.0,5.0,84,0.00,,,0.00,141,Wunderground v.1.15,2013-12-20 16:10:00,
2013-12-20 10:15:00,14.6,10.6,30.09,NNE,13,1.0,5.0,84,0.00,,,0.00,104,Wunderground v.1.15,2013-12-20 16:15:00,
2013-12-20 10:20:00,14.5,10.5,30.08,NNE,12,3.0,6.0,84,0.00,,,0.00,105,Wunderground v.1.15,2013-12-20 16:20:00,
2013-12-20 10:25:00,14.4,10.4,30.08,NNE,13,6.0,6.0,84,0.00,,,0.00,100,Wunderground v.1.15,2013-12-20 16:25:00,
2013-12-20 10:30:00,14.4,10.4,30.08,NNE,14,3.0,6.0,84,0.00,,,0.00,105,Wunderground v.1.15,2013-12-20 16:30:00,
2013-12-20 10:35:00,14.5,10.5,30.08,NNE,17,5.0,6.0,84,0.00,,,0.00,107,Wunderground v.1.15,2013-12-20 16:35:00,
2013-12-20 10:40:00,14.4,10.4,30.08,North,11,6.0,9.0,84,0.00,,,0.00,113,Wunderground v.1.15,2013-12-20 16:40:00,
2013-12-20 10:45:00,14.4,10.2,30.07,NNE,32,5.0,9.0,83,0.00,,,0.00,137,Wunderground v.1.15,2013-12-20 16:45:00,
2013-12-20 10:50:00,14.5,10.3,30.07,North,5,4.0,9.0,83,0.00,,,0.00,141,Wunderground v.1.15,2013-12-20 16:50:00,
2013-12-20 10:55:00,14.7,10.7,30.06,NNE,22,5.0,6.0,84,0.00,,,0.00,163,Wunderground v.1.15,2013-12-20 16:55:00,
2013-12-20 11:00:00,14.6,10.4,30.06,North,360,8.0,9.0,83,0.00,,,0.00,162,Wunderground v.1.15,2013-12-20 17:00:00,
2013-12-20 11:05:00,14.5,10.3,30.06,NNE,16,6.0,8.0,83,0.00,,,0.00,148,Wunderground v.1.15,2013-12-20 17:05:00,
2013-12-20 11:10:00,14.4,10.2,30.06,NNE,20,5.0,8.0,83,0.00,,,0.00,163,Wunderground v.1.15,2013-12-20 17:10:00,
2013-12-20 11:15:00,14.4,10.2,30.06,NNE,15,3.0,9.0,83,0.00,,,0.00,165,Wunderground v.1.15,2013-12-20 17:15:00,
2013-12-20 11:20:00,14.4,10.2,30.06,NNE,15,3.0,9.0,83,0.00,,,0.00,165,Wunderground v.1.15,2013-12-20 17:20:00,
2013-12-20 11:25:00,14.5,10.0,30.06,NNE,29,1.0,6.0,82,0.00,,,0.00,155,Wunderground v.1.15,2013-12-20 17:25:00,
2013-12-20 11:30:00,14.4,9.9,30.05,North,11,5.0,9.0,82,0.00,,,0.00,149,Wunderground v.1.15,2013-12-20 17:30:00,
2013-12-20 11:35:00,14.3,9.8,30.05,NNE,16,6.0,8.0,82,0.00,,,0.00,151,Wunderground v.1.15,2013-12-20 17:35:00,
2013-12-20 11:40:00,14.5,10.0,30.05,NNE,17,2.0,8.0,82,0.00,,,0.00,144,Wunderground v.1.15,2013-12-20 17:40:00,
2013-12-20 11:45:00,14.7,10.2,30.05,NNE,17,0.0,5.0,82,0.00,,,0.00,141,Wunderground v.1.15,2013-12-20 17:45:00,
2013-12-20 11:50:00,14.8,10.3,30.05,NNE,19,2.0,7.0,82,0.00,,,0.00,141,Wunderground v.1.15,2013-12-20 17:50:00,
2013-12-20 11:55:00,14.9,10.4,30.05,NNE,19,3.0,7.0,82,0.00,,,0.00,142,Wunderground v.1.15,2013-12-20 17:55:00,
2013-12-20 12:00:00,15.0,10.5,30.05,North,9,0.0,7.0,82,0.00,,,0.00,144,Wunderground v.1.15,2013-12-20 18:00:00,
2013-12-20 12:05:00,15.3,10.8,30.05,North,5,2.0,5.0,82,0.00,,,0.00,149,Wunderground v.1.15,2013-12-20 18:05:00,
2013-12-20 12:10:00,15.5,11.0,30.04,North,5,0.0,1.0,82,0.00,,,0.00,148,Wunderground v.1.15,2013-12-20 18:10:00,
2013-12-20 12:15:00,15.5,10.7,30.04,NNE,16,1.0,6.0,81,0.00,,,0.00,139,Wunderground v.1.15,2013-12-20 18:15:00,
2013-12-20 12:20:00,15.5,10.7,30.03,NNE,17,0.0,3.0,81,0.00,,,0.00,132,Wunderground v.1.15,2013-12-20 18:20:00,
2013-12-20 12:25:00,15.5,10.7,30.03,NNE,19,0.0,5.0,81,0.00,,,0.00,132,Wunderground v.1.15,2013-12-20 18:25:00,
2013-12-20 12:30:00,15.7,10.9,30.03,NNE,19,0.0,1.0,81,0.00,,,0.00,134,Wunderground v.1.15,2013-12-20 18:30:00,
2013-12-20 12:36:00,15.9,11.1,30.03,NNE,21,5.0,5.0,81,0.00,,,0.00,118,Wunderground v.1.15,2013-12-20 18:36:00,
2013-12-20 12:41:00,15.9,11.1,30.04,NNE,21,0.0,1.0,81,0.00,,,0.00,134,Wunderground v.1.15,2013-12-20 18:41:00,
2013-12-20 12:46:00,16.0,11.2,30.03,NNE,21,0.0,1.0,81,0.00,,,0.00,123,Wunderground v.1.15,2013-12-20 18:46:00,
2013-12-20 12:51:00,16.1,11.3,30.03,NNE,22,0.0,0.0,81,0.00,,,0.00,123,Wunderground v.1.15,2013-12-20 18:51:00,
2013-12-20 12:56:00,16.2,11.4,30.03,NNE,22,0.0,0.0,81,0.00,,,0.00,120,Wunderground v.1.15,2013-12-20 18:56:00,
2013-12-20 13:01:00,16.4,11.6,30.03,NNE,22,0.0,0.0,81,0.00,,,0.00,127,Wunderground v.1.15,2013-12-20 19:01:00,
2013-12-20 13:06:00,16.5,11.4,30.03,NNE,22,1.0,2.0,80,0.00,,,0.00,123,Wunderground v.1.15,2013-12-20 19:06:00,
2013-12-20 13:11:00,16.5,11.4,30.02,NNE,21,0.0,1.0,80,0.00,,,0.00,139,Wunderground v.1.15,2013-12-20 19:11:00,
2013-12-20 13:16:00,16.6,11.5,30.02,NNE,22,0.0,2.0,80,0.00,,,0.00,149,Wunderground v.1.15,2013-12-20 19:16:00,
2013-12-20 13:21:00,16.8,11.7,30.02,NNE,22,0.0,1.0,80,0.00,,,0.00,169,Wunderground v.1.15,2013-12-20 19:21:00,
2013-12-20 13:26:00,17.0,11.9,30.02,NNE,22,0.0,1.0,80,0.00,,,0.00,146,Wunderground v.1.15,2013-12-20 19:26:00,
2013-12-20 13:31:00,16.8,11.4,30.01,NNE,22,0.0,1.0,79,0.00,,,0.00,120,Wunderground v.1.15,2013-12-20 19:31:00,
2013-12-20 13:33:00,16.9,11.8,30.01,NNE,21,0.0,1.0,80,0.00,,,0.00,113,Wunderground v.1.15,2013-12-20 19:33:00,
2013-12-20 13:38:00,16.9,11.8,30.01,NNE,21,1.0,4.0,80,0.00,,,0.00,91,Wunderground v.1.15,2013-12-20 19:38:00,
2013-12-20 13:43:00,16.7,11.6,30.01,NNE,21,0.0,0.0,80,0.00,,,0.00,86,Wunderground v.1.15,2013-12-20 19:43:00,
2013-12-20 13:48:00,16.7,11.3,30.01,NNE,19,0.0,6.0,79,0.00,,,0.00,91,Wunderground v.1.15,2013-12-20 19:48:00,
2013-12-20 13:53:00,16.6,11.2,30.01,NNE,19,5.0,5.0,79,0.00,,,0.00,123,Wunderground v.1.15,2013-12-20 19:53:00,
2013-12-20 13:58:00,16.7,11.6,30.01,NNE,19,1.0,5.0,80,0.00,,,0.00,134,Wunderground v.1.15,2013-12-20 19:58:00,
2013-12-20 14:03:00,16.7,11.6,30.01,NNE,19,1.0,2.0,80,0.00,,,0.00,134,Wunderground v.1.15,2013-12-20 20:03:00,
2013-12-20 14:08:00,16.8,11.7,30.00,NNE,19,1.0,2.0,80,0.00,,,0.00,134,Wunderground v.1.15,2013-12-20 20:08:00,
2013-12-20 14:13:00,16.9,11.8,30.01,NNE,19,1.0,2.0,80,0.00,,,0.00,132,Wunderground v.1.15,2013-12-20 20:13:00,
2013-12-20 14:18:00,16.9,11.5,30.01,NNE,19,0.0,2.0,79,0.00,,,0.00,128,Wunderground v.1.15,2013-12-20 20:18:00,
2013-12-20 14:23:00,17.0,11.6,30.00,NNE,19,0.0,3.0,79,0.00,,,0.00,120,Wunderground v.1.15,2013-12-20 20:23:00,
2013-12-20 14:28:00,17.0,11.9,30.00,NNE,22,1.0,6.0,80,0.00,,,0.00,114,Wunderground v.1.15,2013-12-20 20:28:00,
2013-12-20 14:33:00,17.1,11.7,30.00,NNE,26,5.0,6.0,79,0.00,,,0.00,109,Wunderground v.1.15,2013-12-20 20:33:00,
2013-12-20 14:38:00,17.1,11.7,30.00,NNE,27,0.0,6.0,79,0.00,,,0.00,102,Wunderground v.1.15,2013-12-20 20:38:00,
2013-12-20 14:43:00,17.1,11.7,30.00,NNE,27,0.0,2.0,79,0.00,,,0.00,93,Wunderground v.1.15,2013-12-20 20:43:00,
2013-12-20 14:48:00,17.4,12.3,30.00,NNE,27,0.0,2.0,80,0.00,,,0.00,105,Wunderground v.1.15,2013-12-20 20:48:00,
2013-12-20 14:53:00,17.5,12.1,30.00,NNE,27,1.0,2.0,79,0.00,,,0.00,113,Wunderground v.1.15,2013-12-20 20:53:00,
2013-12-20 14:58:00,17.6,12.2,30.00,NNE,27,0.0,2.0,79,0.00,,,0.00,120,Wunderground v.1.15,2013-12-20 20:58:00,
2013-12-20 15:03:00,17.7,12.3,30.00,NNE,27,0.0,5.0,79,0.00,,,0.00,120,Wunderground v.1.15,2013-12-20 21:03:00,
2013-12-20 15:08:00,17.9,12.5,30.01,NNE,27,0.0,5.0,79,0.00,,,0.00,107,Wunderground v.1.15,2013-12-20 21:08:00,
2013-12-20 15:13:00,18.1,12.7,30.00,NNE,28,0.0,0.0,79,0.00,,,0.00,83,Wunderground v.1.15,2013-12-20 21:13:00,
2013-12-20 15:18:00,18.2,12.8,30.00,NNE,27,0.0,0.0,79,0.00,,,0.00,62,Wunderground v.1.15,2013-12-20 21:18:00,
2013-12-20 15:23:00,18.3,12.9,30.00,NNE,27,0.0,0.0,79,0.00,,,0.00,39,Wunderground v.1.15,2013-12-20 21:23:00,
2013-12-20 15:29:00,18.5,13.1,30.00,NNE,27,0.0,0.0,79,0.00,,,0.00,39,Wunderground v.1.15,2013-12-20 21:29:00,
2013-12-20 15:34:00,18.6,12.9,30.00,NNE,27,0.0,0.0,78,0.00,,,0.00,39,Wunderground v.1.15,2013-12-20 21:34:00,
2013-12-20 15:39:00,18.7,13.0,30.00,NNE,27,0.0,1.0,78,0.00,,,0.00,37,Wunderground v.1.15,2013-12-20 21:39:00,
2013-12-20 15:44:00,18.7,13.0,30.00,NNE,27,0.0,0.0,78,0.00,,,0.00,33,Wunderground v.1.15,2013-12-20 21:44:00,
2013-12-20 15:49:00,18.8,13.1,30.00,NNE,27,0.0,0.0,78,0.00,,,0.00,32,Wunderground v.1.15,2013-12-20 21:49:00,
2013-12-20 15:54:00,18.8,13.1,30.00,NNE,27,0.0,0.0,78,0.00,,,0.00,35,Wunderground v.1.15,2013-12-20 21:54:00,
2013-12-20 15:59:00,18.9,13.2,29.99,NNE,27,0.0,0.0,78,0.00,,,0.00,33,Wunderground v.1.15,2013-12-20 21:59:00,
2013-12-20 16:04:00,18.9,13.2,29.99,NNE,27,0.0,0.0,78,0.00,,,0.00,28,Wunderground v.1.15,2013-12-20 22:04:00,
2013-12-20 16:09:00,18.9,13.2,29.99,NNE,27,0.0,0.0,78,0.00,,,0.00,21,Wunderground v.1.15,2013-12-20 22:09:00,
2013-12-20 16:14:00,19.0,13.3,29.99,NNE,27,0.0,0.0,78,0.00,,,0.00,12,Wunderground v.1.15,2013-12-20 22:14:00,
2013-12-20 16:19:00,19.1,13.4,29.99,NNE,27,0.0,0.0,78,0.00,,,0.00,7,Wunderground v.1.15,2013-12-20 22:19:00,
2013-12-20 16:24:00,19.1,13.4,29.99,NNE,27,0.0,0.0,78,0.00,,,0.00,5,Wunderground v.1.15,2013-12-20 22:24:00,
2013-12-20 16:29:00,19.1,13.4,29.99,NNE,27,0.0,0.0,78,0.00,,,0.00,0,Wunderground v.1.15,2013-12-20 22:29:00,
2013-12-20 16:34:00,19.1,13.4,29.99,NNE,27,0.0,0.0,78,0.00,,,0.00,0,Wunderground v.1.15,2013-12-20 22:34:00,
2013-12-20 16:39:00,19.1,13.4,29.99,NNE,27,0.0,0.0,78,0.00,,,0.00,0,Wunderground v.1.15,2013-12-20 22:39:00,
2013-12-20 16:44:00,19.2,13.8,29.99,NNE,27,0.0,0.0,79,0.00,,,0.00,0,Wunderground v.1.15,2013-12-20 22:44:00,
2013-12-20 16:49:00,19.2,13.8,29.99,NNE,27,0.0,0.0,79,0.00,,,0.00,0,Wunderground v.1.15,2013-12-20 22:49:00,
2013-12-20 16:54:00,19.3,13.9,29.99,NNE,27,0.0,0.0,79,0.00,,,0.00,0,Wunderground v.1.15,2013-12-20 22:54:00,
2013-12-20 16:59:00,19.3,13.9,29.99,NNE,27,0.0,0.0,79,0.00,,,0.00,0,Wunderground v.1.15,2013-12-20 22:59:00,
2013-12-20 17:04:00,19.3,13.9,29.99,NNE,27,0.0,0.0,79,0.00,,,0.00,0,Wunderground v.1.15,2013-12-20 23:04:00,
2013-12-20 17:09:00,19.3,13.9,29.99,NNE,27,0.0,0.0,79,0.00,,,0.00,0,Wunderground v.1.15,2013-12-20 23:09:00,
2013-12-20 17:14:00,19.3,13.9,29.99,NNE,27,0.0,0.0,79,0.00,,,0.00,0,Wunderground v.1.15,2013-12-20 23:14:00,
2013-12-20 17:19:00,19.3,13.9,29.98,NNE,27,0.0,0.0,79,0.00,,,0.00,0,Wunderground v.1.15,2013-12-20 23:19:00,
2013-12-20 17:24:00,19.3,13.9,29.98,NNE,27,0.0,0.0,79,0.00,,,0.00,0,Wunderground v.1.15,2013-12-20 23:24:00,
2013-12-20 17:29:00,19.5,14.0,29.98,NNE,27,0.0,0.0,79,0.00,,,0.00,0,Wunderground v.1.15,2013-12-20 23:29:00,
2013-12-20 17:34:00,19.6,14.1,29.98,NNE,27,0.0,0.0,79,0.00,,,0.00,0,Wunderground v.1.15,2013-12-20 23:34:00,
2013-12-20 17:39:00,19.5,14.0,29.98,NNE,27,0.0,0.0,79,0.00,,,0.00,0,Wunderground v.1.15,2013-12-20 23:39:00,
2013-12-20 17:44:00,19.5,14.0,29.98,NNE,27,0.0,0.0,79,0.00,,,0.00,0,Wunderground v.1.15,2013-12-20 23:44:00,
2013-12-20 17:49:00,19.4,13.9,29.98,NNE,27,0.0,0.0,79,0.00,,,0.00,0,Wunderground v.1.15,2013-12-20 23:49:00,
2013-12-20 17:54:00,19.3,13.9,29.97,NNE,27,0.0,0.0,79,0.00,,,0.00,0,Wunderground v.1.15,2013-12-20 23:54:00,
2013-12-20 17:59:00,19.4,13.9,29.98,NNE,27,0.0,0.0,79,0.00,,,0.00,0,Wunderground v.1.15,2013-12-20 23:59:00,
2013-12-20 18:04:00,19.5,14.0,29.98,NNE,28,0.0,0.0,79,0.00,,,0.00,0,Wunderground v.1.15,2013-12-21 00:04:00,
2013-12-20 18:09:00,19.5,14.0,29.98,NNE,28,0.0,0.0,79,0.00,,,0.00,0,Wunderground v.1.15,2013-12-21 00:09:00,
2013-12-20 18:14:00,19.5,14.0,29.98,NNE,28,0.0,0.0,79,0.00,,,0.00,0,Wunderground v.1.15,2013-12-21 00:14:00,
2013-12-20 18:19:00,19.6,14.1,29.99,NNE,28,0.0,0.0,79,0.00,,,0.00,0,Wunderground v.1.15,2013-12-21 00:19:00,
2013-12-20 18:24:00,19.6,14.1,29.99,NNE,28,0.0,0.0,79,0.00,,,0.00,0,Wunderground v.1.15,2013-12-21 00:24:00,
2013-12-20 18:29:00,19.6,14.1,29.99,NNE,28,0.0,0.0,79,0.00,,,0.00,0,Wunderground v.1.15,2013-12-21 00:29:00,
2013-12-20 18:34:00,19.6,14.1,29.99,NNE,28,0.0,0.0,79,0.00,,,0.00,0,Wunderground v.1.15,2013-12-21 00:34:00,
2013-12-20 18:39:00,19.5,14.3,29.99,NNE,28,0.0,0.0,80,0.00,,,0.00,0,Wunderground v.1.15,2013-12-21 00:39:00,
2013-12-20 18:44:00,19.5,14.0,29.99,NNE,28,0.0,0.0,79,0.00,,,0.00,0,Wunderground v.1.15,2013-12-21 00:44:00,
2013-12-20 18:49:00,19.5,14.3,29.99,NNE,28,0.0,0.0,80,0.00,,,0.00,0,Wunderground v.1.15,2013-12-21 00:49:00,
2013-12-20 18:54:00,19.5,14.3,30.00,NNE,28,0.0,0.0,80,0.00,,,0.00,0,Wunderground v.1.15,2013-12-21 00:54:00,
2013-12-20 18:59:00,19.4,13.9,30.00,NNE,28,0.0,0.0,79,0.00,,,0.00,0,Wunderground v.1.15,2013-12-21 00:59:00,
2013-12-20 19:04:00,19.3,13.9,29.99,NNE,28,0.0,0.0,79,0.00,,,0.00,0,Wunderground v.1.15,2013-12-21 01:04:00,
2013-12-20 19:09:00,19.2,14.0,29.99,NNE,28,0.0,0.0,80,0.00,,,0.00,0,Wunderground v.1.15,2013-12-21 01:09:00,
2013-12-20 19:14:00,19.2,14.0,29.99,NNE,28,0.0,0.0,80,0.00,,,0.00,0,Wunderground v.1.15,2013-12-21 01:14:00,
2013-12-20 19:20:00,19.1,13.9,29.99,NNE,28,0.0,0.0,80,0.00,,,0.00,0,Wunderground v.1.15,2013-12-21 01:20:00,
2013-12-20 19:25:00,19.2,14.0,29.99,NNE,28,0.0,0.0,80,0.00,,,0.00,0,Wunderground v.1.15,2013-12-21 01:25:00,
2013-12-20 19:30:00,19.1,13.9,29.99,NNE,28,0.0,0.0,80,0.00,,,0.00,0,Wunderground v.1.15,2013-12-21 01:30:00,
2013-12-20 19:35:00,19.1,13.9,29.99,NNE,28,0.0,0.0,80,0.00,,,0.00,0,Wunderground v.1.15,2013-12-21 01:35:00,
2013-12-20 19:40:00,19.1,13.9,29.99,NNE,28,0.0,0.0,80,0.00,,,0.00,0,Wunderground v.1.15,2013-12-21 01:40:00,
2013-12-20 19:45:00,19.1,13.9,29.99,NNE,28,0.0,0.0,80,0.00,,,0.00,0,Wunderground v.1.15,2013-12-21 01:45:00,
2013-12-20 19:50:00,19.1,13.9,29.99,NNE,28,0.0,0.0,80,0.00,,,0.00,0,Wunderground v.1.15,2013-12-21 01:50:00,
2013-12-20 19:55:00,19.1,13.9,29.99,NNE,28,0.0,0.0,80,0.00,,,0.00,0,Wunderground v.1.15,2013-12-21 01:55:00,
2013-12-20 20:00:00,19.1,13.9,29.99,NNE,28,0.0,0.0,80,0.00,,,0.00,0,Wunderground v.1.15,2013-12-21 02:00:00,
2013-12-20 20:05:00,19.0,13.8,29.99,NNE,28,0.0,0.0,80,0.00,,,0.00,0,Wunderground v.1.15,2013-12-21 02:05:00,
2013-12-20 20:10:00,18.9,13.7,29.99,NNE,28,0.0,0.0,80,0.00,,,0.00,0,Wunderground v.1.15,2013-12-21 02:10:00,
2013-12-20 20:15:00,18.9,14.0,29.99,NNE,28,0.0,0.0,81,0.00,,,0.00,0,Wunderground v.1.15,2013-12-21 02:15:00,
2013-12-20 20:20:00,18.9,14.0,29.99,NNE,28,0.0,0.0,81,0.00,,,0.00,0,Wunderground v.1.15,2013-12-21 02:20:00,
2013-12-20 20:25:00,18.9,14.0,29.99,NNE,28,0.0,0.0,81,0.00,,,0.00,0,Wunderground v.1.15,2013-12-21 02:25:00,
2013-12-20 20:30:00,18.8,13.9,29.98,NNE,28,0.0,0.0,81,0.00,,,0.00,0,Wunderground v.1.15,2013-12-21 02:30:00,
2013-12-20 20:35:00,18.9,14.0,29.98,NNE,28,0.0,0.0,81,0.00,,,0.00,0,Wunderground v.1.15,2013-12-21 02:35:00,
2013-12-20 20:40:00,18.8,13.9,29.97,NNE,28,0.0,0.0,81,0.00,,,0.00,0,Wunderground v.1.15,2013-12-21 02:40:00,
2013-12-20 20:45:00,18.8,13.9,29.97,NNE,28,0.0,0.0,81,0.00,,,0.00,0,Wunderground v.1.15,2013-12-21 02:45:00,
2013-12-20 20:50:00,18.8,13.9,29.98,NNE,28,0.0,0.0,81,0.00,,,0.00,0,Wunderground v.1.15,2013-12-21 02:50:00,
2013-12-20 20:55:00,18.8,13.9,29.98,NNE,28,0.0,0.0,81,0.00,,,0.00,0,Wunderground v.1.15,2013-12-21 02:55:00,
2013-12-20 21:00:00,18.8,13.9,29.97,NNE,28,0.0,0.0,81,0.00,,,0.00,0,Wunderground v.1.15,2013-12-21 03:00:00,
2013-12-20 21:05:00,18.8,13.9,29.97,NNE,28,0.0,0.0,81,0.00,,,0.00,0,Wunderground v.1.15,2013-12-21 03:05:00,
2013-12-20 21:10:00,18.8,14.2,29.97,NNE,28,0.0,0.0,82,0.00,,,0.00,0,Wunderground v.1.15,2013-12-21 03:10:00,
2013-12-20 21:15:00,18.7,14.1,29.96,NNE,28,0.0,0.0,82,0.00,,,0.00,0,Wunderground v.1.15,2013-12-21 03:15:00,
2013-12-20 21:20:00,18.7,14.1,29.97,NNE,28,0.0,0.0,82,0.00,,,0.00,0,Wunderground v.1.15,2013-12-21 03:20:00,
2013-12-20 21:25:00,18.8,14.2,29.97,NNE,28,0.0,0.0,82,0.00,,,0.00,0,Wunderground v.1.15,2013-12-21 03:25:00,
2013-12-20 21:30:00,18.8,14.2,29.97,NNE,28,0.0,0.0,82,0.00,,,0.00,0,Wunderground v.1.15,2013-12-21 03:30:00,
2013-12-20 21:35:00,18.8,14.2,29.96,NNE,28,0.0,0.0,82,0.00,,,0.00,0,Wunderground v.1.15,2013-12-21 03:35:00,
2013-12-20 21:40:00,18.8,14.2,29.96,NNE,28,0.0,0.0,82,0.00,,,0.00,0,Wunderground v.1.15,2013-12-21 03:40:00,
2013-12-20 21:45:00,18.7,14.1,29.95,NNE,28,0.0,0.0,82,0.00,,,0.00,0,Wunderground v.1.15,2013-12-21 03:45:00,
2013-12-20 21:50:00,18.7,14.1,29.95,NNE,28,0.0,0.0,82,0.00,,,0.00,0,Wunderground v.1.15,2013-12-21 03:50:00,
2013-12-20 21:55:00,18.6,14.0,29.95,NNE,28,0.0,0.0,82,0.00,,,0.00,0,Wunderground v.1.15,2013-12-21 03:55:00,
2013-12-20 22:00:00,18.5,13.9,29.95,NNE,28,0.0,0.0,82,0.00,,,0.00,0,Wunderground v.1.15,2013-12-21 04:00:00,
2013-12-20 22:05:00,18.5,13.9,29.95,NNE,28,0.0,1.0,82,0.00,,,0.00,0,Wunderground v.1.15,2013-12-21 04:05:00,
2013-12-20 22:10:00,18.3,13.4,29.95,NNE,28,0.0,0.0,81,0.00,,,0.00,0,Wunderground v.1.15,2013-12-21 04:10:00,
2013-12-20 22:15:00,18.4,13.8,29.95,NNE,28,0.0,0.0,82,0.00,,,0.00,0,Wunderground v.1.15,2013-12-21 04:15:00,
2013-12-20 22:20:00,18.4,13.8,29.95,NNE,28,0.0,0.0,82,0.00,,,0.00,0,Wunderground v.1.15,2013-12-21 04:20:00,
2013-12-20 22:25:00,18.4,13.8,29.95,NNE,28,0.0,0.0,82,0.00,,,0.00,0,Wunderground v.1.15,2013-12-21 04:25:00,
2013-12-20 22:30:00,18.3,13.7,29.95,NNE,28,0.0,0.0,82,0.00,,,0.00,0,Wunderground v.1.15,2013-12-21 04:30:00,
2013-12-20 22:35:00,18.3,13.7,29.94,NNE,28,0.0,0.0,82,0.00,,,0.00,0,Wunderground v.1.15,2013-12-21 04:35:00,
2013-12-20 22:40:00,18.2,13.6,29.95,NNE,28,0.0,0.0,82,0.00,,,0.00,0,Wunderground v.1.15,2013-12-21 04:40:00,
2013-12-20 22:45:00,18.2,13.6,29.95,NNE,28,0.0,1.0,82,0.00,,,0.00,0,Wunderground v.1.15,2013-12-21 04:45:00,
2013-12-20 22:51:00,18.1,13.5,29.94,NNE,28,0.0,0.0,82,0.00,,,0.00,0,Wunderground v.1.15,2013-12-21 04:51:00,
2013-12-20 22:56:00,18.0,13.4,29.94,NNE,28,0.0,0.0,82,0.00,,,0.00,0,Wunderground v.1.15,2013-12-21 04:56:00,
2013-12-20 23:01:00,18.0,13.4,29.94,NNE,28,0.0,0.0,82,0.00,,,0.00,0,Wunderground v.1.15,2013-12-21 05:01:00,
2013-12-20 23:02:00,18.0,13.4,29.94,NNE,28,0.0,0.0,82,0.00,,,0.00,0,Wunderground v.1.15,2013-12-21 05:02:00,
2013-12-20 23:07:00,18.0,13.4,29.94,NNE,28,0.0,0.0,82,0.00,,,0.00,0,Wunderground v.1.15,2013-12-21 05:07:00,
2013-12-20 23:12:00,18.0,13.4,29.94,NNE,28,0.0,0.0,82,0.00,,,0.00,0,Wunderground v.1.15,2013-12-21 05:12:00,
2013-12-20 23:17:00,18.1,13.5,29.94,NNE,28,0.0,0.0,82,0.00,,,0.00,0,Wunderground v.1.15,2013-12-21 05:17:00,
2013-12-20 23:22:00,18.1,13.5,29.95,NNE,28,0.0,0.0,82,0.00,,,0.00,0,Wunderground v.1.15,2013-12-21 05:22:00,
2013-12-20 23:27:00,18.1,13.5,29.95,NNE,28,0.0,0.0,82,0.00,,,0.00,0,Wunderground v.1.15,2013-12-21 05:27:00,
2013-12-20 23:32:00,18.1,13.8,29.95,NNE,28,0.0,0.0,83,0.00,,,0.00,0,Wunderground v.1.15,2013-12-21 05:32:00,
2013-12-20 23:37:00,18.2,13.9,29.95,NNE,28,0.0,0.0,83,0.00,,,0.00,0,Wunderground v.1.15,2013-12-21 05:37:00,
2013-12-20 23:42:00,18.3,14.0,29.95,NNE,28,0.0,0.0,83,0.00,,,0.00,0,Wunderground v.1.15,2013-12-21 05:42:00,
2013-12-20 23:47:00,18.3,13.7,29.95,NNE,28,0.0,0.0,82,0.00,,,0.00,0,Wunderground v.1.15,2013-12-21 05:47:00,
2013-12-20 23:52:00,18.3,14.0,29.95,NNE,28,0.0,0.0,83,0.00,,,0.00,0,Wunderground v.1.15,2013-12-21 05:52:00,
2013-12-20 23:57:00,18.2,13.9,29.95,NNE,28,0.0,0.0,83,0.00,,,0.00,0,Wunderground v.1.15,2013-12-21 05:57:00,